sensor_id;sensor_type;location;lat;lon;timestamp;P1;durP1;ratioP1;P2;durP2;ratioP2
17852;SDS011;9052;53.494;14.376;2023-07-30T00:00:31;20.30;;;12.60;;
17852;SDS011;9052;53.494;14.376;2023-07-30T00:02:58;22.43;;;13.60;;
17852;SDS011;9052;53.494;14.376;2023-07-30T00:05:25;13.23;;;11.30;;
17852;SDS011;9052;53.494;14.376;2023-07-30T00:07:53;15.60;;;13.00;;
17852;SDS011;9052;53.494;14.376;2023-07-30T00:10:20;16.60;;;12.10;;
17852;SDS011;9052;53.494;14.376;2023-07-30T00:12:49;12.93;;;10.50;;
17852;SDS011;9052;53.494;14.376;2023-07-30T00:15:16;12.13;;;10.77;;
17852;SDS011;9052;53.494;14.376;2023-07-30T00:17:42;16.30;;;12.03;;
17852;SDS011;9052;53.494;14.376;2023-07-30T00:20:10;18.47;;;12.00;;
17852;SDS011;9052;53.494;14.376;2023-07-30T00:22:37;25.57;;;14.33;;
17852;SDS011;9052;53.494;14.376;2023-07-30T00:25:04;26.07;;;13.90;;
17852;SDS011;9052;53.494;14.376;2023-07-30T00:27:31;14.17;;;11.60;;
17852;SDS011;9052;53.494;14.376;2023-07-30T00:30:00;18.93;;;12.00;;
17852;SDS011;9052;53.494;14.376;2023-07-30T00:32:27;27.07;;;12.57;;
17852;SDS011;9052;53.494;14.376;2023-07-30T00:34:54;15.67;;;12.93;;
17852;SDS011;9052;53.494;14.376;2023-07-30T00:37:21;17.23;;;11.63;;
17852;SDS011;9052;53.494;14.376;2023-07-30T00:39:48;22.87;;;12.80;;
17852;SDS011;9052;53.494;14.376;2023-07-30T00:42:15;21.27;;;13.20;;
17852;SDS011;9052;53.494;14.376;2023-07-30T00:44:42;19.37;;;13.50;;
17852;SDS011;9052;53.494;14.376;2023-07-30T00:47:10;18.87;;;13.00;;
17852;SDS011;9052;53.494;14.376;2023-07-30T00:49:37;21.90;;;13.70;;
17852;SDS011;9052;53.494;14.376;2023-07-30T00:52:05;17.80;;;12.53;;
17852;SDS011;9052;53.494;14.376;2023-07-30T00:54:32;19.57;;;12.83;;
17852;SDS011;9052;53.494;14.376;2023-07-30T00:56:59;16.47;;;11.50;;
17852;SDS011;9052;53.494;14.376;2023-07-30T00:59:27;14.77;;;9.60;;
17852;SDS011;9052;53.494;14.376;2023-07-30T01:01:54;13.87;;;11.47;;
17852;SDS011;9052;53.494;14.376;2023-07-30T01:04:24;13.47;;;9.53;;
17852;SDS011;9052;53.494;14.376;2023-07-30T01:06:51;12.93;;;9.43;;
17852;SDS011;9052;53.494;14.376;2023-07-30T01:09:18;22.43;;;12.20;;
17852;SDS011;9052;53.494;14.376;2023-07-30T01:11:45;13.10;;;10.60;;
17852;SDS011;9052;53.494;14.376;2023-07-30T01:14:12;11.73;;;10.40;;
17852;SDS011;9052;53.494;14.376;2023-07-30T01:16:40;11.00;;;9.80;;
17852;SDS011;9052;53.494;14.376;2023-07-30T01:19:07;19.33;;;11.93;;
17852;SDS011;9052;53.494;14.376;2023-07-30T01:21:35;19.30;;;11.43;;
17852;SDS011;9052;53.494;14.376;2023-07-30T01:24:03;12.67;;;10.50;;
17852;SDS011;9052;53.494;14.376;2023-07-30T01:26:31;15.10;;;10.50;;
17852;SDS011;9052;53.494;14.376;2023-07-30T01:29:00;31.40;;;12.60;;
17852;SDS011;9052;53.494;14.376;2023-07-30T01:31:30;18.70;;;12.50;;
17852;SDS011;9052;53.494;14.376;2023-07-30T01:33:57;43.30;;;12.37;;
17852;SDS011;9052;53.494;14.376;2023-07-30T01:36:26;39.07;;;13.47;;
17852;SDS011;9052;53.494;14.376;2023-07-30T01:38:55;19.10;;;11.33;;
17852;SDS011;9052;53.494;14.376;2023-07-30T01:41:23;11.87;;;9.10;;
17852;SDS011;9052;53.494;14.376;2023-07-30T01:43:50;15.27;;;11.50;;
17852;SDS011;9052;53.494;14.376;2023-07-30T01:46:17;12.67;;;11.20;;
17852;SDS011;9052;53.494;14.376;2023-07-30T01:48:44;20.13;;;11.63;;
17852;SDS011;9052;53.494;14.376;2023-07-30T01:51:11;13.20;;;11.90;;
17852;SDS011;9052;53.494;14.376;2023-07-30T01:53:38;22.83;;;12.73;;
17852;SDS011;9052;53.494;14.376;2023-07-30T01:56:07;17.10;;;12.33;;
17852;SDS011;9052;53.494;14.376;2023-07-30T01:58:33;23.07;;;10.83;;
17852;SDS011;9052;53.494;14.376;2023-07-30T02:01:00;23.60;;;13.20;;
17852;SDS011;9052;53.494;14.376;2023-07-30T02:03:27;18.83;;;13.83;;
17852;SDS011;9052;53.494;14.376;2023-07-30T02:05:54;17.23;;;14.80;;
17852;SDS011;9052;53.494;14.376;2023-07-30T02:08:21;22.90;;;15.53;;
17852;SDS011;9052;53.494;14.376;2023-07-30T02:10:54;21.77;;;14.17;;
17852;SDS011;9052;53.494;14.376;2023-07-30T02:13:23;18.00;;;13.67;;
17852;SDS011;9052;53.494;14.376;2023-07-30T02:15:50;48.80;;;17.07;;
17852;SDS011;9052;53.494;14.376;2023-07-30T02:18:17;27.47;;;16.40;;
17852;SDS011;9052;53.494;14.376;2023-07-30T02:20:44;22.87;;;15.20;;
17852;SDS011;9052;53.494;14.376;2023-07-30T02:23:11;37.77;;;15.97;;
17852;SDS011;9052;53.494;14.376;2023-07-30T02:25:40;84.50;;;18.13;;
17852;SDS011;9052;53.494;14.376;2023-07-30T02:28:07;94.30;;;15.57;;
17852;SDS011;9052;53.494;14.376;2023-07-30T02:30:35;53.80;;;15.87;;
17852;SDS011;9052;53.494;14.376;2023-07-30T02:33:02;19.90;;;15.13;;
17852;SDS011;9052;53.494;14.376;2023-07-30T02:35:29;23.10;;;14.10;;
17852;SDS011;9052;53.494;14.376;2023-07-30T02:37:56;47.07;;;14.40;;
17852;SDS011;9052;53.494;14.376;2023-07-30T02:40:23;24.47;;;14.17;;
17852;SDS011;9052;53.494;14.376;2023-07-30T02:42:50;22.37;;;14.40;;
17852;SDS011;9052;53.494;14.376;2023-07-30T02:45:17;20.33;;;13.63;;
17852;SDS011;9052;53.494;14.376;2023-07-30T02:47:45;22.60;;;14.17;;
17852;SDS011;9052;53.494;14.376;2023-07-30T02:52:42;34.53;;;13.37;;
17852;SDS011;9052;53.494;14.376;2023-07-30T02:55:09;18.80;;;12.80;;
17852;SDS011;9052;53.494;14.376;2023-07-30T02:57:36;23.43;;;13.90;;
17852;SDS011;9052;53.494;14.376;2023-07-30T03:00:04;21.70;;;15.30;;
17852;SDS011;9052;53.494;14.376;2023-07-30T03:02:31;43.13;;;14.33;;
17852;SDS011;9052;53.494;14.376;2023-07-30T03:05:00;22.63;;;13.50;;
17852;SDS011;9052;53.494;14.376;2023-07-30T03:07:27;25.03;;;12.97;;
17852;SDS011;9052;53.494;14.376;2023-07-30T03:09:54;17.60;;;13.13;;
17852;SDS011;9052;53.494;14.376;2023-07-30T03:12:21;24.57;;;16.23;;
17852;SDS011;9052;53.494;14.376;2023-07-30T03:14:48;18.30;;;14.80;;
17852;SDS011;9052;53.494;14.376;2023-07-30T03:17:15;17.03;;;13.93;;
17852;SDS011;9052;53.494;14.376;2023-07-30T03:19:42;28.07;;;14.17;;
17852;SDS011;9052;53.494;14.376;2023-07-30T03:22:10;17.63;;;12.37;;
17852;SDS011;9052;53.494;14.376;2023-07-30T03:24:37;31.00;;;15.77;;
17852;SDS011;9052;53.494;14.376;2023-07-30T03:27:05;27.07;;;14.07;;
17852;SDS011;9052;53.494;14.376;2023-07-30T03:29:32;20.67;;;15.20;;
17852;SDS011;9052;53.494;14.376;2023-07-30T03:31:59;25.57;;;16.30;;
17852;SDS011;9052;53.494;14.376;2023-07-30T03:34:26;27.30;;;17.83;;
17852;SDS011;9052;53.494;14.376;2023-07-30T03:36:53;24.23;;;16.50;;
17852;SDS011;9052;53.494;14.376;2023-07-30T03:39:21;25.30;;;17.50;;
17852;SDS011;9052;53.494;14.376;2023-07-30T03:41:48;33.43;;;16.13;;
17852;SDS011;9052;53.494;14.376;2023-07-30T03:44:15;28.73;;;17.40;;
17852;SDS011;9052;53.494;14.376;2023-07-30T03:46:42;27.13;;;16.33;;
17852;SDS011;9052;53.494;14.376;2023-07-30T03:49:09;26.23;;;16.10;;
17852;SDS011;9052;53.494;14.376;2023-07-30T03:51:36;29.40;;;19.63;;
17852;SDS011;9052;53.494;14.376;2023-07-30T03:54:04;30.90;;;20.00;;
17852;SDS011;9052;53.494;14.376;2023-07-30T03:56:32;33.90;;;19.13;;
17852;SDS011;9052;53.494;14.376;2023-07-30T03:58:59;25.33;;;18.60;;
17852;SDS011;9052;53.494;14.376;2023-07-30T04:01:26;38.93;;;19.13;;
17852;SDS011;9052;53.494;14.376;2023-07-30T04:03:54;24.57;;;17.70;;
17852;SDS011;9052;53.494;14.376;2023-07-30T04:06:21;21.33;;;13.77;;
17852;SDS011;9052;53.494;14.376;2023-07-30T04:08:48;23.30;;;14.97;;
17852;SDS011;9052;53.494;14.376;2023-07-30T04:11:14;19.40;;;13.83;;
17852;SDS011;9052;53.494;14.376;2023-07-30T04:13:43;17.27;;;12.40;;
17852;SDS011;9052;53.494;14.376;2023-07-30T04:16:10;34.07;;;11.50;;
17852;SDS011;9052;53.494;14.376;2023-07-30T04:18:36;13.33;;;9.80;;
17852;SDS011;9052;53.494;14.376;2023-07-30T04:21:03;19.30;;;9.97;;
17852;SDS011;9052;53.494;14.376;2023-07-30T04:23:30;13.03;;;8.83;;
17852;SDS011;9052;53.494;14.376;2023-07-30T04:25:57;17.83;;;9.73;;
17852;SDS011;9052;53.494;14.376;2023-07-30T04:28:24;9.63;;;7.93;;
17852;SDS011;9052;53.494;14.376;2023-07-30T04:30:52;17.20;;;8.83;;
17852;SDS011;9052;53.494;14.376;2023-07-30T04:33:19;5.80;;;5.30;;
17852;SDS011;9052;53.494;14.376;2023-07-30T04:35:46;8.47;;;5.40;;
17852;SDS011;9052;53.494;14.376;2023-07-30T04:38:13;14.63;;;6.37;;
17852;SDS011;9052;53.494;14.376;2023-07-30T04:40:40;12.13;;;6.03;;
17852;SDS011;9052;53.494;14.376;2023-07-30T04:43:07;10.20;;;5.70;;
17852;SDS011;9052;53.494;14.376;2023-07-30T04:45:34;8.50;;;4.53;;
17852;SDS011;9052;53.494;14.376;2023-07-30T04:48:02;11.03;;;5.07;;
17852;SDS011;9052;53.494;14.376;2023-07-30T04:50:29;5.47;;;4.33;;
17852;SDS011;9052;53.494;14.376;2023-07-30T04:52:56;7.53;;;4.30;;
17852;SDS011;9052;53.494;14.376;2023-07-30T04:55:23;12.30;;;4.20;;
17852;SDS011;9052;53.494;14.376;2023-07-30T04:57:50;5.80;;;3.23;;
17852;SDS011;9052;53.494;14.376;2023-07-30T05:00:17;5.90;;;3.33;;
17852;SDS011;9052;53.494;14.376;2023-07-30T05:02:44;11.03;;;3.23;;
17852;SDS011;9052;53.494;14.376;2023-07-30T05:05:13;12.13;;;2.70;;
17852;SDS011;9052;53.494;14.376;2023-07-30T05:07:40;8.27;;;3.17;;
17852;SDS011;9052;53.494;14.376;2023-07-30T05:10:07;4.43;;;2.80;;
17852;SDS011;9052;53.494;14.376;2023-07-30T05:12:36;5.70;;;2.83;;
17852;SDS011;9052;53.494;14.376;2023-07-30T05:15:03;4.50;;;2.57;;
17852;SDS011;9052;53.494;14.376;2023-07-30T05:17:30;2.60;;;2.40;;
17852;SDS011;9052;53.494;14.376;2023-07-30T05:19:57;6.10;;;2.70;;
17852;SDS011;9052;53.494;14.376;2023-07-30T05:22:26;2.47;;;2.00;;
17852;SDS011;9052;53.494;14.376;2023-07-30T05:24:53;4.13;;;2.53;;
17852;SDS011;9052;53.494;14.376;2023-07-30T05:27:20;7.57;;;2.73;;
17852;SDS011;9052;53.494;14.376;2023-07-30T05:29:47;9.03;;;3.10;;
17852;SDS011;9052;53.494;14.376;2023-07-30T05:32:15;7.27;;;2.80;;
17852;SDS011;9052;53.494;14.376;2023-07-30T05:34:42;3.33;;;2.90;;
17852;SDS011;9052;53.494;14.376;2023-07-30T05:37:09;3.73;;;2.90;;
17852;SDS011;9052;53.494;14.376;2023-07-30T05:39:37;4.23;;;2.93;;
17852;SDS011;9052;53.494;14.376;2023-07-30T05:42:04;8.53;;;2.70;;
17852;SDS011;9052;53.494;14.376;2023-07-30T05:44:31;6.93;;;3.10;;
17852;SDS011;9052;53.494;14.376;2023-07-30T05:46:58;7.50;;;3.60;;
17852;SDS011;9052;53.494;14.376;2023-07-30T05:49:25;7.57;;;3.40;;
17852;SDS011;9052;53.494;14.376;2023-07-30T05:51:52;14.90;;;3.47;;
17852;SDS011;9052;53.494;14.376;2023-07-30T05:54:19;8.90;;;3.40;;
17852;SDS011;9052;53.494;14.376;2023-07-30T05:56:47;7.80;;;3.27;;
17852;SDS011;9052;53.494;14.376;2023-07-30T05:59:14;9.97;;;3.50;;
17852;SDS011;9052;53.494;14.376;2023-07-30T06:01:41;5.73;;;3.23;;
17852;SDS011;9052;53.494;14.376;2023-07-30T06:04:07;3.50;;;3.17;;
17852;SDS011;9052;53.494;14.376;2023-07-30T06:06:34;4.63;;;3.37;;
17852;SDS011;9052;53.494;14.376;2023-07-30T06:09:01;6.50;;;2.83;;
17852;SDS011;9052;53.494;14.376;2023-07-30T06:11:28;6.50;;;3.40;;
17852;SDS011;9052;53.494;14.376;2023-07-30T06:13:56;3.33;;;3.03;;
17852;SDS011;9052;53.494;14.376;2023-07-30T06:16:23;7.50;;;3.20;;
17852;SDS011;9052;53.494;14.376;2023-07-30T06:18:50;11.03;;;3.70;;
17852;SDS011;9052;53.494;14.376;2023-07-30T06:21:17;3.43;;;3.10;;
17852;SDS011;9052;53.494;14.376;2023-07-30T06:23:44;4.50;;;3.40;;
17852;SDS011;9052;53.494;14.376;2023-07-30T06:26:12;6.70;;;2.73;;
17852;SDS011;9052;53.494;14.376;2023-07-30T06:28:39;9.53;;;2.77;;
17852;SDS011;9052;53.494;14.376;2023-07-30T06:31:07;4.33;;;2.90;;
17852;SDS011;9052;53.494;14.376;2023-07-30T06:33:37;7.70;;;2.77;;
17852;SDS011;9052;53.494;14.376;2023-07-30T06:36:04;4.20;;;2.90;;
17852;SDS011;9052;53.494;14.376;2023-07-30T06:38:31;6.07;;;2.43;;
17852;SDS011;9052;53.494;14.376;2023-07-30T06:40:58;11.80;;;3.13;;
17852;SDS011;9052;53.494;14.376;2023-07-30T06:43:24;2.33;;;2.07;;
17852;SDS011;9052;53.494;14.376;2023-07-30T06:45:52;3.43;;;2.33;;
17852;SDS011;9052;53.494;14.376;2023-07-30T06:48:21;5.27;;;2.63;;
17852;SDS011;9052;53.494;14.376;2023-07-30T06:50:48;3.47;;;2.70;;
17852;SDS011;9052;53.494;14.376;2023-07-30T06:53:15;2.40;;;2.10;;
17852;SDS011;9052;53.494;14.376;2023-07-30T06:55:41;4.30;;;2.40;;
17852;SDS011;9052;53.494;14.376;2023-07-30T06:58:08;5.07;;;2.20;;
17852;SDS011;9052;53.494;14.376;2023-07-30T07:00:36;3.77;;;2.77;;
17852;SDS011;9052;53.494;14.376;2023-07-30T07:03:03;2.47;;;1.90;;
17852;SDS011;9052;53.494;14.376;2023-07-30T07:05:31;7.73;;;2.70;;
17852;SDS011;9052;53.494;14.376;2023-07-30T07:07:58;7.37;;;2.30;;
17852;SDS011;9052;53.494;14.376;2023-07-30T07:10:25;10.20;;;3.63;;
17852;SDS011;9052;53.494;14.376;2023-07-30T07:12:52;4.10;;;2.30;;
17852;SDS011;9052;53.494;14.376;2023-07-30T07:15:19;8.03;;;1.90;;
17852;SDS011;9052;53.494;14.376;2023-07-30T07:17:46;5.23;;;2.37;;
17852;SDS011;9052;53.494;14.376;2023-07-30T07:20:13;2.17;;;2.07;;
17852;SDS011;9052;53.494;14.376;2023-07-30T07:22:41;5.60;;;2.13;;
17852;SDS011;9052;53.494;14.376;2023-07-30T07:25:08;8.80;;;2.87;;
17852;SDS011;9052;53.494;14.376;2023-07-30T07:27:35;16.40;;;2.23;;
17852;SDS011;9052;53.494;14.376;2023-07-30T07:30:02;6.90;;;2.13;;
17852;SDS011;9052;53.494;14.376;2023-07-30T07:32:30;5.77;;;2.00;;
17852;SDS011;9052;53.494;14.376;2023-07-30T07:35:03;3.67;;;2.20;;
17852;SDS011;9052;53.494;14.376;2023-07-30T07:37:31;2.37;;;2.00;;
17852;SDS011;9052;53.494;14.376;2023-07-30T07:40:00;3.47;;;1.90;;
17852;SDS011;9052;53.494;14.376;2023-07-30T07:42:28;10.13;;;2.27;;
17852;SDS011;9052;53.494;14.376;2023-07-30T07:44:55;10.47;;;2.27;;
17852;SDS011;9052;53.494;14.376;2023-07-30T07:47:22;2.10;;;1.83;;
17852;SDS011;9052;53.494;14.376;2023-07-30T07:49:49;6.20;;;2.20;;
17852;SDS011;9052;53.494;14.376;2023-07-30T07:52:16;2.30;;;1.87;;
17852;SDS011;9052;53.494;14.376;2023-07-30T07:54:47;1.70;;;1.47;;
17852;SDS011;9052;53.494;14.376;2023-07-30T07:57:16;3.90;;;2.03;;
17852;SDS011;9052;53.494;14.376;2023-07-30T07:59:43;2.50;;;1.77;;
17852;SDS011;9052;53.494;14.376;2023-07-30T08:02:10;21.07;;;2.17;;
17852;SDS011;9052;53.494;14.376;2023-07-30T08:04:38;3.67;;;1.80;;
17852;SDS011;9052;53.494;14.376;2023-07-30T08:07:04;2.03;;;1.93;;
17852;SDS011;9052;53.494;14.376;2023-07-30T08:09:31;5.47;;;2.13;;
17852;SDS011;9052;53.494;14.376;2023-07-30T08:11:59;3.63;;;2.00;;
17852;SDS011;9052;53.494;14.376;2023-07-30T08:14:29;5.67;;;2.07;;
17852;SDS011;9052;53.494;14.376;2023-07-30T08:16:56;18.13;;;2.50;;
17852;SDS011;9052;53.494;14.376;2023-07-30T08:19:23;2.37;;;1.53;;
17852;SDS011;9052;53.494;14.376;2023-07-30T08:21:51;4.03;;;1.43;;
17852;SDS011;9052;53.494;14.376;2023-07-30T08:24:18;4.63;;;1.90;;
17852;SDS011;9052;53.494;14.376;2023-07-30T08:26:45;1.93;;;1.30;;
17852;SDS011;9052;53.494;14.376;2023-07-30T08:29:12;5.07;;;1.87;;
17852;SDS011;9052;53.494;14.376;2023-07-30T08:31:41;6.27;;;1.60;;
17852;SDS011;9052;53.494;14.376;2023-07-30T08:34:08;6.27;;;1.40;;
17852;SDS011;9052;53.494;14.376;2023-07-30T08:36:40;3.00;;;1.70;;
17852;SDS011;9052;53.494;14.376;2023-07-30T08:39:07;1.80;;;1.30;;
17852;SDS011;9052;53.494;14.376;2023-07-30T08:41:34;2.60;;;1.70;;
17852;SDS011;9052;53.494;14.376;2023-07-30T08:44:01;1.30;;;1.20;;
17852;SDS011;9052;53.494;14.376;2023-07-30T08:46:28;1.23;;;1.13;;
17852;SDS011;9052;53.494;14.376;2023-07-30T08:48:56;2.40;;;1.57;;
17852;SDS011;9052;53.494;14.376;2023-07-30T08:51:23;3.40;;;1.90;;
17852;SDS011;9052;53.494;14.376;2023-07-30T08:53:52;1.47;;;1.27;;
17852;SDS011;9052;53.494;14.376;2023-07-30T08:56:19;2.27;;;1.53;;
17852;SDS011;9052;53.494;14.376;2023-07-30T08:58:46;10.23;;;1.43;;
17852;SDS011;9052;53.494;14.376;2023-07-30T09:01:14;1.90;;;1.53;;
17852;SDS011;9052;53.494;14.376;2023-07-30T09:03:43;3.07;;;1.80;;
17852;SDS011;9052;53.494;14.376;2023-07-30T09:06:14;2.83;;;1.50;;
17852;SDS011;9052;53.494;14.376;2023-07-30T09:08:41;4.50;;;1.53;;
17852;SDS011;9052;53.494;14.376;2023-07-30T09:11:08;4.20;;;1.50;;
17852;SDS011;9052;53.494;14.376;2023-07-30T09:13:39;1.53;;;1.43;;
17852;SDS011;9052;53.494;14.376;2023-07-30T09:16:11;3.70;;;1.87;;
17852;SDS011;9052;53.494;14.376;2023-07-30T09:18:39;7.73;;;1.77;;
17852;SDS011;9052;53.494;14.376;2023-07-30T09:21:06;7.73;;;1.60;;
17852;SDS011;9052;53.494;14.376;2023-07-30T09:23:40;4.60;;;1.93;;
17852;SDS011;9052;53.494;14.376;2023-07-30T09:26:07;26.90;;;2.80;;
17852;SDS011;9052;53.494;14.376;2023-07-30T09:28:34;2.50;;;2.10;;
17852;SDS011;9052;53.494;14.376;2023-07-30T09:31:01;2.57;;;2.37;;
17852;SDS011;9052;53.494;14.376;2023-07-30T09:33:28;4.70;;;2.43;;
17852;SDS011;9052;53.494;14.376;2023-07-30T09:35:55;4.93;;;2.87;;
17852;SDS011;9052;53.494;14.376;2023-07-30T09:38:22;2.53;;;2.33;;
17852;SDS011;9052;53.494;14.376;2023-07-30T09:40:52;2.80;;;2.60;;
17852;SDS011;9052;53.494;14.376;2023-07-30T09:43:20;3.00;;;2.80;;
17852;SDS011;9052;53.494;14.376;2023-07-30T09:45:47;13.53;;;2.77;;
17852;SDS011;9052;53.494;14.376;2023-07-30T09:48:14;5.43;;;2.63;;
17852;SDS011;9052;53.494;14.376;2023-07-30T09:50:41;2.73;;;2.63;;
17852;SDS011;9052;53.494;14.376;2023-07-30T09:53:09;2.80;;;2.60;;
17852;SDS011;9052;53.494;14.376;2023-07-30T09:55:37;10.27;;;2.77;;
17852;SDS011;9052;53.494;14.376;2023-07-30T09:58:05;3.43;;;3.13;;
17852;SDS011;9052;53.494;14.376;2023-07-30T10:00:36;7.00;;;3.10;;
17852;SDS011;9052;53.494;14.376;2023-07-30T10:03:03;3.00;;;2.80;;
17852;SDS011;9052;53.494;14.376;2023-07-30T10:05:32;2.90;;;2.70;;
17852;SDS011;9052;53.494;14.376;2023-07-30T10:08:02;2.97;;;2.77;;
17852;SDS011;9052;53.494;14.376;2023-07-30T10:10:32;3.00;;;2.80;;
17852;SDS011;9052;53.494;14.376;2023-07-30T10:13:01;3.00;;;2.17;;
17852;SDS011;9052;53.494;14.376;2023-07-30T10:15:34;2.20;;;2.00;;
17852;SDS011;9052;53.494;14.376;2023-07-30T10:18:01;4.50;;;2.40;;
17852;SDS011;9052;53.494;14.376;2023-07-30T10:20:28;13.30;;;2.60;;
17852;SDS011;9052;53.494;14.376;2023-07-30T10:22:56;2.37;;;2.17;;
17852;SDS011;9052;53.494;14.376;2023-07-30T10:25:27;2.57;;;2.23;;
17852;SDS011;9052;53.494;14.376;2023-07-30T10:27:55;6.60;;;2.43;;
17852;SDS011;9052;53.494;14.376;2023-07-30T10:30:27;7.00;;;2.27;;
17852;SDS011;9052;53.494;14.376;2023-07-30T10:33:00;2.70;;;2.40;;
17852;SDS011;9052;53.494;14.376;2023-07-30T10:35:35;3.27;;;2.37;;
17852;SDS011;9052;53.494;14.376;2023-07-30T10:38:15;3.20;;;2.90;;
17852;SDS011;9052;53.494;14.376;2023-07-30T10:43:29;2.90;;;2.20;;
17852;SDS011;9052;53.494;14.376;2023-07-30T10:45:56;5.07;;;2.20;;
17852;SDS011;9052;53.494;14.376;2023-07-30T10:48:30;4.03;;;1.97;;
17852;SDS011;9052;53.494;14.376;2023-07-30T10:50:59;2.93;;;1.60;;
17852;SDS011;9052;53.494;14.376;2023-07-30T10:53:27;6.13;;;2.10;;
17852;SDS011;9052;53.494;14.376;2023-07-30T10:55:54;2.03;;;1.50;;
17852;SDS011;9052;53.494;14.376;2023-07-30T10:58:25;3.17;;;2.10;;
17852;SDS011;9052;53.494;14.376;2023-07-30T11:00:52;3.77;;;1.83;;
17852;SDS011;9052;53.494;14.376;2023-07-30T11:03:19;1.80;;;1.70;;
17852;SDS011;9052;53.494;14.376;2023-07-30T11:05:47;3.43;;;1.50;;
17852;SDS011;9052;53.494;14.376;2023-07-30T11:08:14;3.03;;;1.77;;
17852;SDS011;9052;53.494;14.376;2023-07-30T11:10:42;8.70;;;2.10;;
17852;SDS011;9052;53.494;14.376;2023-07-30T11:13:09;2.20;;;1.87;;
17852;SDS011;9052;53.494;14.376;2023-07-30T11:15:40;4.07;;;1.57;;
17852;SDS011;9052;53.494;14.376;2023-07-30T11:18:08;3.60;;;1.67;;
17852;SDS011;9052;53.494;14.376;2023-07-30T11:20:35;2.30;;;1.80;;
17852;SDS011;9052;53.494;14.376;2023-07-30T11:23:05;4.43;;;2.10;;
17852;SDS011;9052;53.494;14.376;2023-07-30T11:25:45;2.03;;;1.63;;
17852;SDS011;9052;53.494;14.376;2023-07-30T11:28:13;7.60;;;1.87;;
17852;SDS011;9052;53.494;14.376;2023-07-30T11:30:40;1.77;;;1.67;;
17852;SDS011;9052;53.494;14.376;2023-07-30T11:33:07;1.83;;;1.40;;
17852;SDS011;9052;53.494;14.376;2023-07-30T11:35:34;3.77;;;1.50;;
17852;SDS011;9052;53.494;14.376;2023-07-30T11:38:01;2.10;;;1.73;;
17852;SDS011;9052;53.494;14.376;2023-07-30T11:40:30;1.57;;;1.47;;
17852;SDS011;9052;53.494;14.376;2023-07-30T11:42:57;1.40;;;1.30;;
17852;SDS011;9052;53.494;14.376;2023-07-30T11:45:24;5.23;;;1.73;;
17852;SDS011;9052;53.494;14.376;2023-07-30T11:47:51;4.50;;;1.57;;
17852;SDS011;9052;53.494;14.376;2023-07-30T11:50:20;6.13;;;2.23;;
17852;SDS011;9052;53.494;14.376;2023-07-30T11:52:53;1.77;;;1.60;;
17852;SDS011;9052;53.494;14.376;2023-07-30T11:55:20;1.20;;;1.10;;
17852;SDS011;9052;53.494;14.376;2023-07-30T11:57:51;2.60;;;1.80;;
17852;SDS011;9052;53.494;14.376;2023-07-30T12:00:20;2.10;;;2.00;;
17852;SDS011;9052;53.494;14.376;2023-07-30T12:02:47;3.03;;;2.10;;
17852;SDS011;9052;53.494;14.376;2023-07-30T12:05:16;2.23;;;1.63;;
17852;SDS011;9052;53.494;14.376;2023-07-30T12:07:44;3.17;;;1.87;;
17852;SDS011;9052;53.494;14.376;2023-07-30T12:10:13;2.03;;;1.83;;
17852;SDS011;9052;53.494;14.376;2023-07-30T12:12:44;3.50;;;1.93;;
17852;SDS011;9052;53.494;14.376;2023-07-30T12:15:12;2.63;;;2.53;;
17852;SDS011;9052;53.494;14.376;2023-07-30T12:17:40;4.77;;;2.03;;
17852;SDS011;9052;53.494;14.376;2023-07-30T12:20:07;2.17;;;1.70;;
17852;SDS011;9052;53.494;14.376;2023-07-30T12:22:34;4.40;;;2.73;;
17852;SDS011;9052;53.494;14.376;2023-07-30T12:25:01;2.27;;;2.07;;
17852;SDS011;9052;53.494;14.376;2023-07-30T12:27:29;4.17;;;1.60;;
17852;SDS011;9052;53.494;14.376;2023-07-30T12:29:55;2.83;;;1.70;;
17852;SDS011;9052;53.494;14.376;2023-07-30T12:32:24;2.23;;;2.03;;
17852;SDS011;9052;53.494;14.376;2023-07-30T12:34:53;6.03;;;2.00;;
17852;SDS011;9052;53.494;14.376;2023-07-30T12:37:20;1.50;;;1.40;;
17852;SDS011;9052;53.494;14.376;2023-07-30T12:39:48;3.43;;;1.60;;
17852;SDS011;9052;53.494;14.376;2023-07-30T12:42:14;9.33;;;3.00;;
17852;SDS011;9052;53.494;14.376;2023-07-30T12:44:41;2.80;;;1.33;;
17852;SDS011;9052;53.494;14.376;2023-07-30T12:47:08;2.50;;;1.00;;
17852;SDS011;9052;53.494;14.376;2023-07-30T12:49:36;3.13;;;1.47;;
17852;SDS011;9052;53.494;14.376;2023-07-30T12:52:04;4.70;;;1.80;;
17852;SDS011;9052;53.494;14.376;2023-07-30T12:54:31;1.80;;;1.67;;
17852;SDS011;9052;53.494;14.376;2023-07-30T12:56:58;7.43;;;1.80;;
17852;SDS011;9052;53.494;14.376;2023-07-30T12:59:25;5.33;;;1.90;;
17852;SDS011;9052;53.494;14.376;2023-07-30T13:01:52;3.83;;;1.50;;
17852;SDS011;9052;53.494;14.376;2023-07-30T13:04:20;1.90;;;1.47;;
17852;SDS011;9052;53.494;14.376;2023-07-30T13:06:49;5.27;;;2.23;;
17852;SDS011;9052;53.494;14.376;2023-07-30T13:09:16;4.77;;;1.60;;
17852;SDS011;9052;53.494;14.376;2023-07-30T13:11:43;4.70;;;1.53;;
17852;SDS011;9052;53.494;14.376;2023-07-30T13:14:10;6.17;;;1.50;;
17852;SDS011;9052;53.494;14.376;2023-07-30T13:16:37;2.80;;;1.83;;
17852;SDS011;9052;53.494;14.376;2023-07-30T13:19:04;3.37;;;1.90;;
17852;SDS011;9052;53.494;14.376;2023-07-30T13:21:31;2.90;;;1.53;;
17852;SDS011;9052;53.494;14.376;2023-07-30T13:24:00;3.27;;;1.60;;
17852;SDS011;9052;53.494;14.376;2023-07-30T13:26:27;3.10;;;2.60;;
17852;SDS011;9052;53.494;14.376;2023-07-30T13:28:54;3.87;;;1.63;;
17852;SDS011;9052;53.494;14.376;2023-07-30T13:31:21;1.57;;;1.47;;
17852;SDS011;9052;53.494;14.376;2023-07-30T13:33:48;1.90;;;1.43;;
17852;SDS011;9052;53.494;14.376;2023-07-30T13:36:16;3.90;;;1.90;;
17852;SDS011;9052;53.494;14.376;2023-07-30T13:38:43;3.83;;;1.53;;
17852;SDS011;9052;53.494;14.376;2023-07-30T13:41:12;10.73;;;1.37;;
17852;SDS011;9052;53.494;14.376;2023-07-30T13:43:39;3.60;;;1.80;;
17852;SDS011;9052;53.494;14.376;2023-07-30T13:46:06;3.83;;;1.30;;
17852;SDS011;9052;53.494;14.376;2023-07-30T13:48:32;2.83;;;1.43;;
17852;SDS011;9052;53.494;14.376;2023-07-30T13:50:59;3.83;;;1.80;;
17852;SDS011;9052;53.494;14.376;2023-07-30T13:53:27;2.00;;;1.40;;
17852;SDS011;9052;53.494;14.376;2023-07-30T13:55:54;2.23;;;1.37;;
17852;SDS011;9052;53.494;14.376;2023-07-30T13:58:22;3.83;;;1.77;;
17852;SDS011;9052;53.494;14.376;2023-07-30T14:00:53;3.03;;;1.33;;
17852;SDS011;9052;53.494;14.376;2023-07-30T14:03:20;2.37;;;1.73;;
17852;SDS011;9052;53.494;14.376;2023-07-30T14:05:47;5.37;;;1.87;;
17852;SDS011;9052;53.494;14.376;2023-07-30T14:08:14;4.93;;;1.50;;
17852;SDS011;9052;53.494;14.376;2023-07-30T14:10:41;3.47;;;2.10;;
17852;SDS011;9052;53.494;14.376;2023-07-30T14:13:08;3.07;;;1.37;;
17852;SDS011;9052;53.494;14.376;2023-07-30T14:15:36;5.80;;;1.70;;
17852;SDS011;9052;53.494;14.376;2023-07-30T14:18:03;1.77;;;1.30;;
17852;SDS011;9052;53.494;14.376;2023-07-30T14:20:30;3.70;;;1.70;;
17852;SDS011;9052;53.494;14.376;2023-07-30T14:22:57;1.33;;;1.23;;
17852;SDS011;9052;53.494;14.376;2023-07-30T14:25:26;2.50;;;1.50;;
17852;SDS011;9052;53.494;14.376;2023-07-30T14:27:53;1.67;;;1.30;;
17852;SDS011;9052;53.494;14.376;2023-07-30T14:30:21;2.13;;;1.37;;
17852;SDS011;9052;53.494;14.376;2023-07-30T14:32:53;2.80;;;1.80;;
17852;SDS011;9052;53.494;14.376;2023-07-30T14:35:20;6.70;;;1.83;;
17852;SDS011;9052;53.494;14.376;2023-07-30T14:37:47;5.13;;;1.60;;
17852;SDS011;9052;53.494;14.376;2023-07-30T14:40:15;7.80;;;2.27;;
17852;SDS011;9052;53.494;14.376;2023-07-30T14:42:42;9.97;;;1.67;;
17852;SDS011;9052;53.494;14.376;2023-07-30T14:45:09;2.80;;;1.43;;